sensor_id;sensor_type;location;lat;lon;timestamp;P1;durP1;ratioP1;P2;durP2;ratioP2
67715;SDS011;54508;43.238;25.306;2024-02-21T00:00:35;6.57;;;4.10;;
67715;SDS011;54508;43.238;25.306;2024-02-21T00:03:03;6.55;;;4.45;;
67715;SDS011;54508;43.238;25.306;2024-02-21T00:05:29;6.33;;;4.40;;
67715;SDS011;54508;43.238;25.306;2024-02-21T00:07:55;5.00;;;4.05;;
67715;SDS011;54508;43.238;25.306;2024-02-21T00:10:20;6.53;;;4.60;;
67715;SDS011;54508;43.238;25.306;2024-02-21T00:12:46;5.77;;;3.80;;
67715;SDS011;54508;43.238;25.306;2024-02-21T00:15:11;6.80;;;4.30;;
67715;SDS011;54508;43.238;25.306;2024-02-21T00:17:37;6.65;;;5.07;;
67715;SDS011;54508;43.238;25.306;2024-02-21T00:20:02;5.03;;;4.30;;
67715;SDS011;54508;43.238;25.306;2024-02-21T00:22:28;5.72;;;4.07;;
67715;SDS011;54508;43.238;25.306;2024-02-21T00:24:56;5.50;;;4.25;;
67715;SDS011;54508;43.238;25.306;2024-02-21T00:27:23;6.68;;;4.95;;
67715;SDS011;54508;43.238;25.306;2024-02-21T00:29:48;6.50;;;4.87;;
67715;SDS011;54508;43.238;25.306;2024-02-21T00:32:14;6.95;;;4.97;;
67715;SDS011;54508;43.238;25.306;2024-02-21T00:34:39;6.63;;;4.57;;
67715;SDS011;54508;43.238;25.306;2024-02-21T00:37:05;7.40;;;4.77;;
67715;SDS011;54508;43.238;25.306;2024-02-21T00:39:30;7.15;;;5.00;;
67715;SDS011;54508;43.238;25.306;2024-02-21T00:41:56;8.23;;;4.20;;
67715;SDS011;54508;43.238;25.306;2024-02-21T00:44:21;6.40;;;4.50;;
67715;SDS011;54508;43.238;25.306;2024-02-21T00:46:47;8.07;;;4.77;;
67715;SDS011;54508;43.238;25.306;2024-02-21T00:49:12;6.30;;;4.80;;
67715;SDS011;54508;43.238;25.306;2024-02-21T00:51:38;5.60;;;4.15;;
67715;SDS011;54508;43.238;25.306;2024-02-21T00:54:03;6.27;;;4.70;;
67715;SDS011;54508;43.238;25.306;2024-02-21T00:56:29;6.67;;;4.70;;
67715;SDS011;54508;43.238;25.306;2024-02-21T00:58:55;6.78;;;4.60;;
67715;SDS011;54508;43.238;25.306;2024-02-21T01:01:21;8.30;;;5.07;;
67715;SDS011;54508;43.238;25.306;2024-02-21T01:03:48;6.63;;;4.93;;
67715;SDS011;54508;43.238;25.306;2024-02-21T01:06:13;7.00;;;4.43;;
67715;SDS011;54508;43.238;25.306;2024-02-21T01:08:38;6.80;;;4.77;;
67715;SDS011;54508;43.238;25.306;2024-02-21T01:11:04;6.82;;;5.05;;
67715;SDS011;54508;43.238;25.306;2024-02-21T01:13:30;6.83;;;4.77;;
67715;SDS011;54508;43.238;25.306;2024-02-21T01:15:55;6.13;;;4.60;;
67715;SDS011;54508;43.238;25.306;2024-02-21T01:18:21;7.03;;;4.80;;
67715;SDS011;54508;43.238;25.306;2024-02-21T01:20:46;7.57;;;4.90;;
67715;SDS011;54508;43.238;25.306;2024-02-21T01:23:11;6.30;;;4.53;;
67715;SDS011;54508;43.238;25.306;2024-02-21T01:25:37;7.10;;;4.63;;
67715;SDS011;54508;43.238;25.306;2024-02-21T01:28:02;6.35;;;4.88;;
67715;SDS011;54508;43.238;25.306;2024-02-21T01:30:28;5.23;;;4.17;;
67715;SDS011;54508;43.238;25.306;2024-02-21T01:32:53;5.27;;;4.60;;
67715;SDS011;54508;43.238;25.306;2024-02-21T01:35:19;7.57;;;5.13;;
67715;SDS011;54508;43.238;25.306;2024-02-21T01:37:44;5.88;;;4.32;;
67715;SDS011;54508;43.238;25.306;2024-02-21T01:40:10;6.43;;;4.80;;
67715;SDS011;54508;43.238;25.306;2024-02-21T01:42:39;5.63;;;4.72;;
67715;SDS011;54508;43.238;25.306;2024-02-21T01:45:05;6.70;;;4.20;;
67715;SDS011;54508;43.238;25.306;2024-02-21T01:47:31;5.72;;;4.28;;
67715;SDS011;54508;43.238;25.306;2024-02-21T01:49:56;7.07;;;4.83;;
67715;SDS011;54508;43.238;25.306;2024-02-21T01:52:22;5.67;;;4.17;;
67715;SDS011;54508;43.238;25.306;2024-02-21T01:54:47;7.75;;;4.20;;
67715;SDS011;54508;43.238;25.306;2024-02-21T01:57:13;5.50;;;4.37;;
67715;SDS011;54508;43.238;25.306;2024-02-21T01:59:39;5.28;;;4.03;;
67715;SDS011;54508;43.238;25.306;2024-02-21T02:02:05;5.30;;;4.20;;
67715;SDS011;54508;43.238;25.306;2024-02-21T02:04:30;5.23;;;3.80;;
67715;SDS011;54508;43.238;25.306;2024-02-21T02:06:56;6.90;;;3.80;;
67715;SDS011;54508;43.238;25.306;2024-02-21T02:09:22;5.47;;;4.10;;
67715;SDS011;54508;43.238;25.306;2024-02-21T02:11:48;5.70;;;4.30;;
67715;SDS011;54508;43.238;25.306;2024-02-21T02:14:13;5.00;;;4.05;;
67715;SDS011;54508;43.238;25.306;2024-02-21T02:16:39;4.90;;;3.80;;
67715;SDS011;54508;43.238;25.306;2024-02-21T02:19:04;5.53;;;3.90;;
67715;SDS011;54508;43.238;25.306;2024-02-21T02:21:32;6.27;;;4.30;;
67715;SDS011;54508;43.238;25.306;2024-02-21T02:24:00;5.63;;;4.25;;
67715;SDS011;54508;43.238;25.306;2024-02-21T02:26:26;5.63;;;4.60;;
67715;SDS011;54508;43.238;25.306;2024-02-21T02:28:52;4.90;;;4.03;;
67715;SDS011;54508;43.238;25.306;2024-02-21T02:31:18;6.47;;;4.28;;
67715;SDS011;54508;43.238;25.306;2024-02-21T02:33:43;5.07;;;4.20;;
67715;SDS011;54508;43.238;25.306;2024-02-21T02:36:13;4.80;;;4.00;;
67715;SDS011;54508;43.238;25.306;2024-02-21T02:38:38;5.30;;;3.77;;
67715;SDS011;54508;43.238;25.306;2024-02-21T02:41:03;6.60;;;4.40;;
67715;SDS011;54508;43.238;25.306;2024-02-21T02:43:29;6.80;;;4.40;;
67715;SDS011;54508;43.238;25.306;2024-02-21T02:45:54;5.23;;;4.10;;
67715;SDS011;54508;43.238;25.306;2024-02-21T02:48:20;5.13;;;4.35;;
67715;SDS011;54508;43.238;25.306;2024-02-21T02:50:46;6.28;;;4.38;;
67715;SDS011;54508;43.238;25.306;2024-02-21T02:53:11;4.83;;;4.07;;
67715;SDS011;54508;43.238;25.306;2024-02-21T02:55:37;5.30;;;3.83;;
67715;SDS011;54508;43.238;25.306;2024-02-21T02:58:02;6.80;;;4.20;;
67715;SDS011;54508;43.238;25.306;2024-02-21T03:00:28;4.90;;;3.97;;
67715;SDS011;54508;43.238;25.306;2024-02-21T03:02:53;5.47;;;4.40;;
67715;SDS011;54508;43.238;25.306;2024-02-21T03:05:19;4.60;;;3.97;;
67715;SDS011;54508;43.238;25.306;2024-02-21T03:07:46;5.32;;;4.18;;
67715;SDS011;54508;43.238;25.306;2024-02-21T03:10:12;6.38;;;4.60;;
67715;SDS011;54508;43.238;25.306;2024-02-21T03:12:38;7.45;;;4.18;;
67715;SDS011;54508;43.238;25.306;2024-02-21T03:15:04;5.10;;;4.07;;
67715;SDS011;54508;43.238;25.306;2024-02-21T03:17:30;5.43;;;4.03;;
67715;SDS011;54508;43.238;25.306;2024-02-21T03:19:57;6.50;;;3.75;;
67715;SDS011;54508;43.238;25.306;2024-02-21T03:22:22;6.57;;;4.13;;
67715;SDS011;54508;43.238;25.306;2024-02-21T03:24:49;5.63;;;3.93;;
67715;SDS011;54508;43.238;25.306;2024-02-21T03:27:14;4.90;;;3.88;;
67715;SDS011;54508;43.238;25.306;2024-02-21T03:29:40;4.70;;;3.83;;
67715;SDS011;54508;43.238;25.306;2024-02-21T03:32:05;4.90;;;3.90;;
67715;SDS011;54508;43.238;25.306;2024-02-21T03:34:31;5.60;;;4.40;;
67715;SDS011;54508;43.238;25.306;2024-02-21T03:36:56;5.43;;;4.13;;
67715;SDS011;54508;43.238;25.306;2024-02-21T03:39:22;6.40;;;3.90;;
67715;SDS011;54508;43.238;25.306;2024-02-21T03:41:48;5.80;;;4.22;;
67715;SDS011;54508;43.238;25.306;2024-02-21T03:44:13;4.47;;;3.38;;
67715;SDS011;54508;43.238;25.306;2024-02-21T03:46:39;5.10;;;4.07;;
67715;SDS011;54508;43.238;25.306;2024-02-21T03:49:05;4.78;;;3.60;;
67715;SDS011;54508;43.238;25.306;2024-02-21T03:51:30;5.50;;;4.20;;
67715;SDS011;54508;43.238;25.306;2024-02-21T03:53:56;6.75;;;3.92;;
67715;SDS011;54508;43.238;25.306;2024-02-21T03:56:21;4.80;;;4.07;;
67715;SDS011;54508;43.238;25.306;2024-02-21T03:58:47;4.27;;;3.53;;
67715;SDS011;54508;43.238;25.306;2024-02-21T04:01:14;4.82;;;3.78;;
67715;SDS011;54508;43.238;25.306;2024-02-21T04:03:40;5.53;;;3.70;;
67715;SDS011;54508;43.238;25.306;2024-02-21T04:06:05;4.88;;;4.10;;
67715;SDS011;54508;43.238;25.306;2024-02-21T04:08:31;4.70;;;3.50;;
67715;SDS011;54508;43.238;25.306;2024-02-21T04:10:56;4.97;;;3.57;;
67715;SDS011;54508;43.238;25.306;2024-02-21T04:13:22;6.53;;;3.90;;
67715;SDS011;54508;43.238;25.306;2024-02-21T04:15:48;4.85;;;3.67;;
67715;SDS011;54508;43.238;25.306;2024-02-21T04:18:13;4.90;;;3.70;;
67715;SDS011;54508;43.238;25.306;2024-02-21T04:20:39;5.82;;;4.03;;
67715;SDS011;54508;43.238;25.306;2024-02-21T04:23:05;4.47;;;3.40;;
67715;SDS011;54508;43.238;25.306;2024-02-21T04:25:30;5.80;;;4.20;;
67715;SDS011;54508;43.238;25.306;2024-02-21T04:27:56;5.13;;;3.78;;
67715;SDS011;54508;43.238;25.306;2024-02-21T04:30:21;7.07;;;3.73;;
67715;SDS011;54508;43.238;25.306;2024-02-21T04:32:46;5.80;;;3.50;;
67715;SDS011;54508;43.238;25.306;2024-02-21T04:35:12;5.70;;;3.93;;
67715;SDS011;54508;43.238;25.306;2024-02-21T04:37:37;5.50;;;3.70;;
67715;SDS011;54508;43.238;25.306;2024-02-21T04:40:03;5.28;;;4.00;;
67715;SDS011;54508;43.238;25.306;2024-02-21T04:42:28;5.70;;;3.90;;
67715;SDS011;54508;43.238;25.306;2024-02-21T04:44:54;5.40;;;4.30;;
67715;SDS011;54508;43.238;25.306;2024-02-21T04:47:19;5.22;;;4.05;;
67715;SDS011;54508;43.238;25.306;2024-02-21T04:49:45;5.30;;;4.20;;
67715;SDS011;54508;43.238;25.306;2024-02-21T04:52:11;5.57;;;4.50;;
67715;SDS011;54508;43.238;25.306;2024-02-21T04:54:36;4.93;;;3.80;;
67715;SDS011;54508;43.238;25.306;2024-02-21T04:57:02;5.23;;;3.77;;
67715;SDS011;54508;43.238;25.306;2024-02-21T04:59:27;5.53;;;4.32;;
67715;SDS011;54508;43.238;25.306;2024-02-21T05:01:53;5.33;;;3.83;;
67715;SDS011;54508;43.238;25.306;2024-02-21T05:04:18;5.57;;;4.20;;
67715;SDS011;54508;43.238;25.306;2024-02-21T05:06:43;5.17;;;3.63;;
67715;SDS011;54508;43.238;25.306;2024-02-21T05:09:09;5.53;;;4.53;;
67715;SDS011;54508;43.238;25.306;2024-02-21T05:11:35;6.82;;;4.75;;
67715;SDS011;54508;43.238;25.306;2024-02-21T05:14:00;7.38;;;4.28;;
67715;SDS011;54508;43.238;25.306;2024-02-21T05:16:26;6.03;;;3.58;;
67715;SDS011;54508;43.238;25.306;2024-02-21T05:18:51;4.80;;;4.07;;
67715;SDS011;54508;43.238;25.306;2024-02-21T05:21:17;4.77;;;3.50;;
67715;SDS011;54508;43.238;25.306;2024-02-21T05:23:42;6.10;;;4.05;;
67715;SDS011;54508;43.238;25.306;2024-02-21T05:26:08;5.67;;;4.20;;
67715;SDS011;54508;43.238;25.306;2024-02-21T05:28:33;4.80;;;4.10;;
67715;SDS011;54508;43.238;25.306;2024-02-21T05:30:59;5.70;;;4.28;;
67715;SDS011;54508;43.238;25.306;2024-02-21T05:33:24;4.30;;;3.60;;
67715;SDS011;54508;43.238;25.306;2024-02-21T05:35:50;5.63;;;3.90;;
67715;SDS011;54508;43.238;25.306;2024-02-21T05:38:16;4.97;;;4.30;;
67715;SDS011;54508;43.238;25.306;2024-02-21T05:40:41;5.50;;;4.23;;
67715;SDS011;54508;43.238;25.306;2024-02-21T05:43:07;5.07;;;4.37;;
67715;SDS011;54508;43.238;25.306;2024-02-21T05:45:33;4.45;;;3.65;;
67715;SDS011;54508;43.238;25.306;2024-02-21T05:47:58;5.23;;;3.87;;
67715;SDS011;54508;43.238;25.306;2024-02-21T05:50:24;4.53;;;3.60;;
67715;SDS011;54508;43.238;25.306;2024-02-21T05:52:51;4.28;;;3.80;;
67715;SDS011;54508;43.238;25.306;2024-02-21T05:55:17;6.18;;;4.07;;
67715;SDS011;54508;43.238;25.306;2024-02-21T05:57:43;5.03;;;4.20;;
67715;SDS011;54508;43.238;25.306;2024-02-21T06:00:08;5.53;;;4.17;;
67715;SDS011;54508;43.238;25.306;2024-02-21T06:02:34;4.55;;;3.70;;
67715;SDS011;54508;43.238;25.306;2024-02-21T06:04:59;5.43;;;4.03;;
67715;SDS011;54508;43.238;25.306;2024-02-21T06:07:25;5.57;;;3.97;;
67715;SDS011;54508;43.238;25.306;2024-02-21T06:09:50;4.27;;;3.87;;
67715;SDS011;54508;43.238;25.306;2024-02-21T06:12:16;4.50;;;3.60;;
67715;SDS011;54508;43.238;25.306;2024-02-21T06:14:41;6.72;;;4.22;;
67715;SDS011;54508;43.238;25.306;2024-02-21T06:17:07;9.87;;;4.27;;
67715;SDS011;54508;43.238;25.306;2024-02-21T06:19:32;15.20;;;4.80;;
67715;SDS011;54508;43.238;25.306;2024-02-21T06:21:57;9.53;;;4.90;;
67715;SDS011;54508;43.238;25.306;2024-02-21T06:24:23;6.77;;;5.07;;
67715;SDS011;54508;43.238;25.306;2024-02-21T06:26:48;9.50;;;4.93;;
67715;SDS011;54508;43.238;25.306;2024-02-21T06:29:14;8.53;;;5.10;;
67715;SDS011;54508;43.238;25.306;2024-02-21T06:31:40;10.37;;;6.30;;
67715;SDS011;54508;43.238;25.306;2024-02-21T06:34:05;14.85;;;7.65;;
67715;SDS011;54508;43.238;25.306;2024-02-21T06:36:31;13.90;;;7.87;;
67715;SDS011;54508;43.238;25.306;2024-02-21T06:38:57;15.85;;;6.78;;
67715;SDS011;54508;43.238;25.306;2024-02-21T06:41:23;13.27;;;6.17;;
67715;SDS011;54508;43.238;25.306;2024-02-21T06:43:49;9.38;;;6.18;;
67715;SDS011;54508;43.238;25.306;2024-02-21T06:46:24;9.37;;;5.90;;
67715;SDS011;54508;43.238;25.306;2024-02-21T06:48:50;11.45;;;6.38;;
67715;SDS011;54508;43.238;25.306;2024-02-21T06:51:16;7.83;;;5.47;;
67715;SDS011;54508;43.238;25.306;2024-02-21T06:53:41;7.77;;;5.60;;
67715;SDS011;54508;43.238;25.306;2024-02-21T06:56:07;5.95;;;4.72;;
67715;SDS011;54508;43.238;25.306;2024-02-21T06:58:33;6.90;;;5.43;;
67715;SDS011;54508;43.238;25.306;2024-02-21T07:00:58;6.72;;;4.50;;
67715;SDS011;54508;43.238;25.306;2024-02-21T07:03:23;6.50;;;4.60;;
67715;SDS011;54508;43.238;25.306;2024-02-21T07:05:49;6.30;;;5.07;;
67715;SDS011;54508;43.238;25.306;2024-02-21T07:08:15;6.80;;;4.57;;
67715;SDS011;54508;43.238;25.306;2024-02-21T07:10:40;6.40;;;3.77;;
67715;SDS011;54508;43.238;25.306;2024-02-21T07:13:06;4.17;;;3.20;;
67715;SDS011;54508;43.238;25.306;2024-02-21T07:15:31;5.03;;;4.05;;
67715;SDS011;54508;43.238;25.306;2024-02-21T07:17:58;5.82;;;4.10;;
67715;SDS011;54508;43.238;25.306;2024-02-21T07:20:24;7.95;;;4.22;;
67715;SDS011;54508;43.238;25.306;2024-02-21T07:22:49;5.53;;;4.30;;
67715;SDS011;54508;43.238;25.306;2024-02-21T07:25:15;6.35;;;4.45;;
67715;SDS011;54508;43.238;25.306;2024-02-21T07:27:41;6.33;;;4.17;;
67715;SDS011;54508;43.238;25.306;2024-02-21T07:30:07;5.97;;;4.50;;
67715;SDS011;54508;43.238;25.306;2024-02-21T07:32:32;6.70;;;3.90;;
67715;SDS011;54508;43.238;25.306;2024-02-21T07:34:58;10.77;;;4.30;;
67715;SDS011;54508;43.238;25.306;2024-02-21T07:37:23;8.70;;;4.43;;
67715;SDS011;54508;43.238;25.306;2024-02-21T07:39:49;6.13;;;3.83;;
67715;SDS011;54508;43.238;25.306;2024-02-21T07:42:14;6.60;;;4.50;;
67715;SDS011;54508;43.238;25.306;2024-02-21T07:44:40;8.68;;;4.20;;
67715;SDS011;54508;43.238;25.306;2024-02-21T07:47:06;4.75;;;4.07;;
67715;SDS011;54508;43.238;25.306;2024-02-21T07:49:32;5.45;;;4.80;;
67715;SDS011;54508;43.238;25.306;2024-02-21T07:51:57;7.03;;;4.13;;
67715;SDS011;54508;43.238;25.306;2024-02-21T07:54:25;5.90;;;4.00;;
67715;SDS011;54508;43.238;25.306;2024-02-21T07:56:51;5.20;;;3.47;;
67715;SDS011;54508;43.238;25.306;2024-02-21T07:59:16;5.07;;;4.53;;
67715;SDS011;54508;43.238;25.306;2024-02-21T08:01:42;6.97;;;4.30;;
67715;SDS011;54508;43.238;25.306;2024-02-21T08:04:09;8.70;;;5.32;;
67715;SDS011;54508;43.238;25.306;2024-02-21T08:06:35;6.40;;;4.30;;
67715;SDS011;54508;43.238;25.306;2024-02-21T08:09:00;6.30;;;5.23;;
67715;SDS011;54508;43.238;25.306;2024-02-21T08:11:26;9.27;;;5.63;;
67715;SDS011;54508;43.238;25.306;2024-02-21T08:13:51;9.87;;;5.53;;
67715;SDS011;54508;43.238;25.306;2024-02-21T08:16:16;8.17;;;5.27;;
67715;SDS011;54508;43.238;25.306;2024-02-21T08:18:43;9.70;;;5.30;;
67715;SDS011;54508;43.238;25.306;2024-02-21T08:21:09;13.40;;;6.70;;
67715;SDS011;54508;43.238;25.306;2024-02-21T08:23:34;9.33;;;6.10;;
67715;SDS011;54508;43.238;25.306;2024-02-21T08:26:02;9.97;;;5.77;;
67715;SDS011;54508;43.238;25.306;2024-02-21T08:28:28;8.27;;;6.15;;
67715;SDS011;54508;43.238;25.306;2024-02-21T08:30:54;13.73;;;5.80;;
67715;SDS011;54508;43.238;25.306;2024-02-21T08:33:19;12.43;;;5.60;;
67715;SDS011;54508;43.238;25.306;2024-02-21T08:35:49;8.17;;;5.60;;
67715;SDS011;54508;43.238;25.306;2024-02-21T08:38:15;10.15;;;4.90;;
67715;SDS011;54508;43.238;25.306;2024-02-21T08:40:40;13.53;;;5.43;;
67715;SDS011;54508;43.238;25.306;2024-02-21T08:43:05;10.63;;;5.80;;
67715;SDS011;54508;43.238;25.306;2024-02-21T08:45:31;15.63;;;6.03;;
67715;SDS011;54508;43.238;25.306;2024-02-21T08:47:56;9.60;;;5.85;;
67715;SDS011;54508;43.238;25.306;2024-02-21T08:50:22;12.90;;;5.40;;
67715;SDS011;54508;43.238;25.306;2024-02-21T08:52:47;12.73;;;6.43;;
67715;SDS011;54508;43.238;25.306;2024-02-21T08:55:13;11.73;;;6.40;;
67715;SDS011;54508;43.238;25.306;2024-02-21T08:57:38;11.88;;;6.25;;
67715;SDS011;54508;43.238;25.306;2024-02-21T09:00:06;13.32;;;6.15;;
67715;SDS011;54508;43.238;25.306;2024-02-21T09:02:43;9.55;;;6.20;;
67715;SDS011;54508;43.238;25.306;2024-02-21T09:05:09;8.30;;;5.70;;
67715;SDS011;54508;43.238;25.306;2024-02-21T09:07:34;7.70;;;5.22;;
67715;SDS011;54508;43.238;25.306;2024-02-21T09:10:00;7.00;;;5.35;;
67715;SDS011;54508;43.238;25.306;2024-02-21T09:12:26;6.60;;;5.83;;
67715;SDS011;54508;43.238;25.306;2024-02-21T09:14:51;14.25;;;6.25;;
67715;SDS011;54508;43.238;25.306;2024-02-21T09:17:17;11.10;;;5.90;;
67715;SDS011;54508;43.238;25.306;2024-02-21T09:19:43;11.27;;;5.97;;
67715;SDS011;54508;43.238;25.306;2024-02-21T09:22:09;11.38;;;6.03;;
67715;SDS011;54508;43.238;25.306;2024-02-21T09:24:34;6.90;;;5.27;;
67715;SDS011;54508;43.238;25.306;2024-02-21T09:27:00;8.82;;;4.95;;
67715;SDS011;54508;43.238;25.306;2024-02-21T09:29:25;10.60;;;5.27;;
67715;SDS011;54508;43.238;25.306;2024-02-21T09:31:51;6.57;;;4.77;;
67715;SDS011;54508;43.238;25.306;2024-02-21T09:34:17;12.68;;;5.18;;
67715;SDS011;54508;43.238;25.306;2024-02-21T09:36:42;8.20;;;5.43;;
67715;SDS011;54508;43.238;25.306;2024-02-21T09:39:09;8.15;;;5.22;;
67715;SDS011;54508;43.238;25.306;2024-02-21T09:41:36;9.85;;;4.78;;
67715;SDS011;54508;43.238;25.306;2024-02-21T09:44:04;6.88;;;5.28;;
67715;SDS011;54508;43.238;25.306;2024-02-21T09:49:22;6.38;;;4.35;;
67715;SDS011;54508;43.238;25.306;2024-02-21T09:52:04;61.47;;;8.02;;
67715;SDS011;54508;43.238;25.306;2024-02-21T09:54:30;264.55;;;26.02;;
67715;SDS011;54508;43.238;25.306;2024-02-21T09:56:58;113.03;;;13.82;;
67715;SDS011;54508;43.238;25.306;2024-02-21T09:59:24;59.28;;;9.82;;
67715;SDS011;54508;43.238;25.306;2024-02-21T10:01:50;77.82;;;10.32;;
67715;SDS011;54508;43.238;25.306;2024-02-21T10:04:16;47.88;;;7.93;;
67715;SDS011;54508;43.238;25.306;2024-02-21T10:06:43;67.90;;;10.38;;
67715;SDS011;54508;43.238;25.306;2024-02-21T10:09:19;67.37;;;9.70;;
67715;SDS011;54508;43.238;25.306;2024-02-21T10:11:45;44.15;;;8.93;;
67715;SDS011;54508;43.238;25.306;2024-02-21T10:14:10;41.97;;;8.07;;
67715;SDS011;54508;43.238;25.306;2024-02-21T10:16:36;26.88;;;7.00;;
67715;SDS011;54508;43.238;25.306;2024-02-21T10:19:02;26.13;;;6.87;;
67715;SDS011;54508;43.238;25.306;2024-02-21T10:21:28;26.48;;;6.05;;
67715;SDS011;54508;43.238;25.306;2024-02-21T10:23:54;23.73;;;5.90;;
67715;SDS011;54508;43.238;25.306;2024-02-21T10:26:20;19.70;;;5.60;;
67715;SDS011;54508;43.238;25.306;2024-02-21T10:28:46;22.55;;;6.03;;
67715;SDS011;54508;43.238;25.306;2024-02-21T10:31:23;12.15;;;5.30;;
67715;SDS011;54508;43.238;25.306;2024-02-21T10:33:59;17.17;;;5.00;;
67715;SDS011;54508;43.238;25.306;2024-02-21T10:36:28;22.80;;;5.70;;
67715;SDS011;54508;43.238;25.306;2024-02-21T10:38:54;16.70;;;5.00;;
67715;SDS011;54508;43.238;25.306;2024-02-21T10:41:20;19.55;;;5.05;;
67715;SDS011;54508;43.238;25.306;2024-02-21T10:43:47;15.13;;;4.63;;
67715;SDS011;54508;43.238;25.306;2024-02-21T10:46:15;20.58;;;5.00;;
67715;SDS011;54508;43.238;25.306;2024-02-21T10:48:45;12.45;;;4.95;;
67715;SDS011;54508;43.238;25.306;2024-02-21T10:51:17;10.45;;;4.85;;
67715;SDS011;54508;43.238;25.306;2024-02-21T10:56:39;12.70;;;4.33;;
67715;SDS011;54508;43.238;25.306;2024-02-21T10:59:07;10.55;;;4.03;;
67715;SDS011;54508;43.238;25.306;2024-02-21T11:01:33;8.98;;;3.95;;
67715;SDS011;54508;43.238;25.306;2024-02-21T11:04:07;13.65;;;3.95;;
67715;SDS011;54508;43.238;25.306;2024-02-21T11:06:33;6.70;;;3.88;;
67715;SDS011;54508;43.238;25.306;2024-02-21T11:09:01;6.77;;;3.37;;
67715;SDS011;54508;43.238;25.306;2024-02-21T11:11:28;7.80;;;3.72;;
67715;SDS011;54508;43.238;25.306;2024-02-21T11:14:03;5.10;;;3.28;;
67715;SDS011;54508;43.238;25.306;2024-02-21T11:16:34;7.93;;;3.47;;
67715;SDS011;54508;43.238;25.306;2024-02-21T11:19:08;4.28;;;2.67;;
67715;SDS011;54508;43.238;25.306;2024-02-21T11:21:44;6.65;;;2.97;;
67715;SDS011;54508;43.238;25.306;2024-02-21T11:24:09;5.10;;;3.93;;
67715;SDS011;54508;43.238;25.306;2024-02-21T11:26:36;6.70;;;3.20;;
67715;SDS011;54508;43.238;25.306;2024-02-21T11:29:03;7.85;;;3.72;;
67715;SDS011;54508;43.238;25.306;2024-02-21T11:31:43;7.67;;;3.17;;
67715;SDS011;54508;43.238;25.306;2024-02-21T11:34:11;8.48;;;3.50;;
67715;SDS011;54508;43.238;25.306;2024-02-21T11:36:45;7.35;;;2.90;;
67715;SDS011;54508;43.238;25.306;2024-02-21T11:39:22;6.45;;;3.25;;
67715;SDS011;54508;43.238;25.306;2024-02-21T11:42:02;10.07;;;4.03;;
67715;SDS011;54508;43.238;25.306;2024-02-21T11:44:29;7.20;;;2.90;;
67715;SDS011;54508;43.238;25.306;2024-02-21T11:46:54;6.40;;;3.30;;
67715;SDS011;54508;43.238;25.306;2024-02-21T11:49:20;9.13;;;3.38;;
67715;SDS011;54508;43.238;25.306;2024-02-21T11:51:46;4.83;;;3.30;;
67715;SDS011;54508;43.238;25.306;2024-02-21T11:54:11;4.50;;;2.37;;
67715;SDS011;54508;43.238;25.306;2024-02-21T11:56:41;12.88;;;3.30;;
67715;SDS011;54508;43.238;25.306;2024-02-21T11:59:06;6.90;;;2.97;;
67715;SDS011;54508;43.238;25.306;2024-02-21T12:01:32;8.47;;;2.83;;
67715;SDS011;54508;43.238;25.306;2024-02-21T12:03:57;4.47;;;3.10;;
67715;SDS011;54508;43.238;25.306;2024-02-21T12:06:22;8.30;;;2.80;;
67715;SDS011;54508;43.238;25.306;2024-02-21T12:08:48;7.23;;;3.20;;
67715;SDS011;54508;43.238;25.306;2024-02-21T12:11:20;5.37;;;3.10;;
67715;SDS011;54508;43.238;25.306;2024-02-21T12:13:47;4.45;;;2.55;;
67715;SDS011;54508;43.238;25.306;2024-02-21T12:16:17;3.33;;;2.28;;
67715;SDS011;54508;43.238;25.306;2024-02-21T12:18:43;4.45;;;2.95;;
67715;SDS011;54508;43.238;25.306;2024-02-21T12:21:09;7.80;;;2.63;;
67715;SDS011;54508;43.238;25.306;2024-02-21T12:23:37;9.25;;;2.95;;
67715;SDS011;54508;43.238;25.306;2024-02-21T12:26:03;5.28;;;2.63;;
67715;SDS011;54508;43.238;25.306;2024-02-21T12:28:30;6.75;;;2.80;;
67715;SDS011;54508;43.238;25.306;2024-02-21T12:30:55;5.90;;;2.77;;
67715;SDS011;54508;43.238;25.306;2024-02-21T12:33:21;4.13;;;2.20;;
67715;SDS011;54508;43.238;25.306;2024-02-21T12:35:46;5.30;;;3.13;;
67715;SDS011;54508;43.238;25.306;2024-02-21T12:38:11;6.82;;;2.17;;
67715;SDS011;54508;43.238;25.306;2024-02-21T12:40:38;4.93;;;2.65;;
67715;SDS011;54508;43.238;25.306;2024-02-21T12:43:04;8.60;;;2.47;;
67715;SDS011;54508;43.238;25.306;2024-02-21T12:45:29;6.70;;;2.73;;
67715;SDS011;54508;43.238;25.306;2024-02-21T12:47:55;7.23;;;2.40;;
67715;SDS011;54508;43.238;25.306;2024-02-21T12:50:20;8.70;;;2.57;;
67715;SDS011;54508;43.238;25.306;2024-02-21T12:52:47;3.33;;;2.30;;
67715;SDS011;54508;43.238;25.306;2024-02-21T12:55:14;4.75;;;2.10;;
67715;SDS011;54508;43.238;25.306;2024-02-21T12:57:41;8.65;;;2.10;;
67715;SDS011;54508;43.238;25.306;2024-02-21T13:00:07;3.97;;;1.83;;
67715;SDS011;54508;43.238;25.306;2024-02-21T13:02:34;2.88;;;1.70;;
67715;SDS011;54508;43.238;25.306;2024-02-21T13:05:00;6.97;;;2.17;;
67715;SDS011;54508;43.238;25.306;2024-02-21T13:07:27;4.07;;;1.73;;
67715;SDS011;54508;43.238;25.306;2024-02-21T13:09:53;5.53;;;1.90;;
67715;SDS011;54508;43.238;25.306;2024-02-21T13:12:19;4.43;;;2.08;;
67715;SDS011;54508;43.238;25.306;2024-02-21T13:14:44;8.50;;;2.03;;
67715;SDS011;54508;43.238;25.306;2024-02-21T13:17:09;4.63;;;1.73;;
67715;SDS011;54508;43.238;25.306;2024-02-21T13:19:35;5.17;;;1.90;;
67715;SDS011;54508;43.238;25.306;2024-02-21T13:22:00;6.70;;;2.63;;
67715;SDS011;54508;43.238;25.306;2024-02-21T13:24:27;4.40;;;2.22;;
67715;SDS011;54508;43.238;25.306;2024-02-21T13:26:52;5.25;;;2.40;;
67715;SDS011;54508;43.238;25.306;2024-02-21T13:29:18;6.80;;;2.10;;
67715;SDS011;54508;43.238;25.306;2024-02-21T13:31:44;2.57;;;2.17;;
67715;SDS011;54508;43.238;25.306;2024-02-21T13:34:09;4.68;;;2.45;;
67715;SDS011;54508;43.238;25.306;2024-02-21T13:36:35;5.50;;;2.73;;
67715;SDS011;54508;43.238;25.306;2024-02-21T13:39:00;5.50;;;2.37;;
67715;SDS011;54508;43.238;25.306;2024-02-21T13:41:26;7.33;;;2.43;;
67715;SDS011;54508;43.238;25.306;2024-02-21T13:43:51;7.20;;;3.05;;
67715;SDS011;54508;43.238;25.306;2024-02-21T13:46:17;9.30;;;3.10;;
67715;SDS011;54508;43.238;25.306;2024-02-21T13:48:42;10.90;;;3.33;;
67715;SDS011;54508;43.238;25.306;2024-02-21T13:51:08;8.73;;;2.77;;
67715;SDS011;54508;43.238;25.306;2024-02-21T13:53:34;19.17;;;3.00;;
67715;SDS011;54508;43.238;25.306;2024-02-21T13:55:59;7.53;;;2.95;;
67715;SDS011;54508;43.238;25.306;2024-02-21T13:58:25;9.27;;;2.90;;
67715;SDS011;54508;43.238;25.306;2024-02-21T14:00:51;9.85;;;2.88;;
67715;SDS011;54508;43.238;25.306;2024-02-21T14:03:17;9.30;;;3.17;;
67715;SDS011;54508;43.238;25.306;2024-02-21T14:05:44;10.60;;;3.28;;
67715;SDS011;54508;43.238;25.306;2024-02-21T14:08:09;8.10;;;2.97;;
67715;SDS011;54508;43.238;25.306;2024-02-21T14:10:35;11.45;;;3.40;;
67715;SDS011;54508;43.238;25.306;2024-02-21T14:13:02;7.70;;;2.95;;
67715;SDS011;54508;43.238;25.306;2024-02-21T14:15:27;5.83;;;2.47;;
67715;SDS011;54508;43.238;25.306;2024-02-21T14:17:53;7.67;;;2.57;;
67715;SDS011;54508;43.238;25.306;2024-02-21T14:20:18;4.00;;;2.08;;
67715;SDS011;54508;43.238;25.306;2024-02-21T14:22:43;3.65;;;2.20;;
67715;SDS011;54508;43.238;25.306;2024-02-21T14:25:09;7.43;;;2.40;;
67715;SDS011;54508;43.238;25.306;2024-02-21T14:27:34;8.60;;;2.43;;
67715;SDS011;54508;43.238;25.306;2024-02-21T14:30:02;9.25;;;2.08;;